createdAt,value
2023-09-29T00:00:24.082Z,14
2023-09-29T00:15:24.404Z,16
2023-09-29T00:30:23.981Z,16
2023-09-29T00:45:24.022Z,15
2023-09-29T01:00:24.760Z,12
2023-09-29T01:15:23.946Z,13
2023-09-29T01:30:24.496Z,12
2023-09-29T01:45:24.059Z,13
2023-09-29T02:00:24.500Z,14
2023-09-29T02:15:24.497Z,10
2023-09-29T02:30:24.172Z,15
2023-09-29T02:45:24.506Z,17
2023-09-29T03:00:24.457Z,14
2023-09-29T03:15:24.486Z,14
2023-09-29T03:30:24.785Z,15
2023-09-29T03:45:24.830Z,13
2023-09-29T04:00:24.595Z,14
2023-09-29T04:15:16.387Z,11
2023-09-29T04:30:24.150Z,15
2023-09-29T04:45:24.510Z,17
2023-09-29T05:00:25.182Z,14
2023-09-29T05:15:24.602Z,21
2023-09-29T05:30:24.743Z,19
2023-09-29T05:45:24.422Z,20
2023-09-29T06:00:24.423Z,16
2023-09-29T06:01:41.888Z,24
2023-09-29T06:16:05.321Z,25
2023-09-29T06:31:05.280Z,27
2023-09-29T06:46:05.805Z,18
2023-09-29T07:01:08.742Z,19
2023-09-29T07:16:04.839Z,19
2023-09-29T07:31:05.155Z,16
2023-09-29T07:46:05.677Z,13
2023-09-29T08:01:05.874Z,12
2023-09-29T08:16:05.562Z,14
2023-09-29T08:31:06.324Z,10
2023-09-29T08:46:05.469Z,14
2023-09-29T09:01:05.044Z,11
2023-09-29T09:16:04.996Z,11
2023-09-29T09:31:04.921Z,14
2023-09-29T09:46:05.879Z,12
2023-09-29T10:01:05.756Z,14
2023-09-29T10:16:05.882Z,9
2023-09-29T10:45:24.924Z,8
2023-09-29T11:00:23.891Z,5
2023-09-29T11:30:23.893Z,4
2023-09-29T11:45:23.887Z,9
2023-09-29T12:00:24.924Z,10
2023-09-29T12:15:24.203Z,9
2023-09-29T12:30:24.741Z,9
2023-09-29T12:45:25.139Z,10
2023-09-29T13:00:24.672Z,8
2023-09-29T13:15:24.524Z,8
2023-09-29T13:30:23.822Z,6
2023-09-29T13:45:24.872Z,8
2023-09-29T14:00:24.991Z,11
2023-09-29T14:15:24.307Z,8
2023-09-29T14:30:26.034Z,5
2023-09-29T14:45:24.581Z,13
2023-09-29T15:00:27.052Z,9
2023-09-29T15:15:24.737Z,13
2023-09-29T15:30:24.870Z,11
2023-09-29T15:45:24.227Z,7
2023-09-29T16:00:24.300Z,12
2023-09-29T16:15:24.563Z,14
2023-09-29T16:30:24.808Z,22
2023-09-29T16:45:24.425Z,18
2023-09-29T17:00:24.389Z,14
2023-09-29T17:15:24.601Z,10
2023-09-29T17:30:24.073Z,12
2023-09-29T17:45:24.737Z,23
2023-09-29T18:00:24.221Z,17
2023-09-29T18:15:24.326Z,9
2023-09-29T18:30:24.785Z,11
2023-09-29T18:45:24.649Z,21
2023-09-29T19:00:24.091Z,14
2023-09-29T19:15:24.931Z,9
2023-09-29T19:30:24.677Z,11
2023-09-29T19:45:24.254Z,14
2023-09-29T20:00:24.220Z,14
2023-09-29T20:15:24.342Z,13
2023-09-29T20:30:24.636Z,14
2023-09-29T20:45:24.769Z,12
2023-09-29T21:00:24.563Z,11
2023-09-29T21:15:24.186Z,14
2023-09-29T21:30:24.348Z,11
2023-09-29T21:45:24.216Z,10
2023-09-29T22:00:24.318Z,14
2023-09-29T22:15:24.257Z,11
2023-09-29T22:30:24.506Z,14
2023-09-29T22:45:24.379Z,10
2023-09-29T23:00:24.466Z,14
2023-09-29T23:15:23.864Z,11
2023-09-29T23:30:24.939Z,15
2023-09-29T23:45:24.529Z,13
